Time;durP1;ratioP1;P1;durP2;ratioP2;P2;SDS_P1;SDS_P2;PMS_P1;PMS_P2;Temp;Humidity;BMP_temperature;BMP_pressure;BME280_temperature;BME280_humidity;BME280_pressure;Samples;Min_cycle;Max_cycle;Signal;HPM_P1;HPM_P2
2021/06/11 00:00:07;;;;;;;8.48;6.30;;;16.30;87.10;;;;;;5086835;28;20254;-45
2021/06/11 00:02:32;;;;;;;10.40;5.95;;;16.30;87.50;;;;;;5086061;28;20046;-44
2021/06/11 00:04:58;;;;;;;7.78;6.43;;;16.20;87.70;;;;;;5086241;28;20344;-44
2021/06/11 00:07:23;;;;;;;7.20;6.00;;;16.20;87.80;;;;;;5085951;28;20041;-43
2021/06/11 00:09:49;;;;;;;7.57;6.20;;;16.30;88.50;;;;;;5084832;28;20033;-43
2021/06/11 00:12:14;;;;;;;8.10;6.50;;;16.30;87.90;;;;;;5085730;28;20032;-43
2021/06/11 00:14:41;;;;;;;7.68;6.30;;;16.30;88.00;;;;;;5086148;28;20043;-43
2021/06/11 00:17:07;;;;;;;10.48;6.40;;;16.40;88.10;;;;;;5085158;28;20059;-43
2021/06/11 00:19:33;;;;;;;7.88;6.65;;;16.40;88.30;;;;;;5085887;28;20201;-45
2021/06/11 00:22:00;;;;;;;11.20;6.13;;;16.30;86.40;;;;;;5086050;28;20029;-44
2021/06/11 00:24:26;;;;;;;7.07;6.10;;;16.30;87.70;;;;;;5085741;28;20346;-44
2021/06/11 00:26:51;;;;;;;10.95;6.15;;;16.20;86.40;;;;;;5086381;28;20027;-43
2021/06/11 00:29:17;;;;;;;11.70;6.65;;;16.10;87.40;;;;;;5086132;28;20033;-46
2021/06/11 00:31:42;;;;;;;7.75;6.13;;;16.00;86.80;;;;;;5085508;28;20227;-43
2021/06/11 00:34:08;;;;;;;8.02;6.53;;;16.00;87.20;;;;;;5085700;28;20471;-43
2021/06/11 00:36:33;;;;;;;8.30;6.75;;;16.10;87.40;;;;;;5084606;28;20036;-43
2021/06/11 00:38:59;;;;;;;9.93;6.50;;;16.10;87.30;;;;;;5086089;28;20336;-44
2021/06/11 00:41:25;;;;;;;7.70;6.47;;;16.30;88.10;;;;;;5085776;28;20047;-44
2021/06/11 00:43:50;;;;;;;12.27;6.25;;;16.30;87.90;;;;;;5085226;28;20032;-43
2021/06/11 00:46:16;;;;;;;8.82;6.05;;;16.30;87.40;;;;;;5085229;28;20134;-44
2021/06/11 00:48:41;;;;;;;9.48;6.75;;;16.20;87.60;;;;;;5085238;28;20042;-43
2021/06/11 00:51:07;;;;;;;10.48;7.28;;;16.20;87.40;;;;;;5086122;28;20040;-43
2021/06/11 00:53:32;;;;;;;9.75;6.05;;;16.20;87.70;;;;;;5085634;28;20040;-43
2021/06/11 00:55:58;;;;;;;9.10;6.10;;;16.30;88.10;;;;;;5084979;28;20047;-44
2021/06/11 00:58:23;;;;;;;7.30;6.00;;;16.30;87.90;;;;;;5084900;28;20048;-43
2021/06/11 01:00:49;;;;;;;7.88;6.45;;;16.20;87.80;;;;;;5085020;28;20032;-44
2021/06/11 01:03:15;;;;;;;9.40;6.63;;;16.00;87.00;;;;;;5083906;28;20040;-47
2021/06/11 01:05:42;;;;;;;10.27;7.30;;;16.10;87.30;;;;;;5085308;28;20023;-48
2021/06/11 01:08:07;;;;;;;9.68;6.40;;;16.00;87.40;;;;;;5085162;28;20040;-44
2021/06/11 01:10:34;;;;;;;10.75;6.70;;;16.10;87.40;;;;;;5085168;28;20092;-44
2021/06/11 01:13:00;;;;;;;9.07;6.68;;;16.10;88.00;;;;;;5084652;28;20213;-44
2021/06/11 01:15:26;;;;;;;8.25;6.38;;;16.10;88.10;;;;;;5084531;28;20037;-43
2021/06/11 01:17:55;;;;;;;7.88;6.60;;;16.10;87.30;;;;;;5084993;28;20378;-44
2021/06/11 01:20:21;;;;;;;9.80;6.75;;;16.10;87.80;;;;;;5085000;28;20040;-45
2021/06/11 01:22:59;;;;;;;7.75;6.30;;;16.00;87.10;;;;;;5084685;28;20033;-44
2021/06/11 01:25:54;;;;;;;7.43;6.53;;;16.00;87.50;;;;;;5083499;28;20048;-43
2021/06/11 01:28:20;;;;;;;8.20;6.60;;;16.00;87.90;;;;;;5083727;28;20032;-43
2021/06/11 01:30:46;;;;;;;7.20;6.38;;;16.10;88.10;;;;;;5083390;28;20099;-43
2021/06/11 01:33:12;;;;;;;9.07;7.07;;;16.10;88.40;;;;;;5083657;28;20033;-43
2021/06/11 01:35:56;;;;;;;9.00;6.80;;;16.10;87.50;;;;;;5083154;28;20036;-43
2021/06/11 01:38:23;;;;;;;8.95;6.65;;;16.30;88.60;;;;;;5083688;28;20037;-44
2021/06/11 01:40:50;;;;;;;13.15;6.53;;;16.10;87.80;;;;;;5084508;28;20044;-43
2021/06/11 01:43:16;;;;;;;7.85;6.30;;;16.10;88.10;;;;;;5083131;28;20212;-43
2021/06/11 01:45:41;;;;;;;9.75;7.10;;;16.30;88.70;;;;;;5084137;28;20077;-44
2021/06/11 01:48:07;;;;;;;7.50;6.40;;;16.30;88.50;;;;;;5084764;28;20035;-43
2021/06/11 01:50:34;;;;;;;10.38;6.97;;;16.30;88.60;;;;;;5084524;28;20212;-45
2021/06/11 01:53:00;;;;;;;8.38;7.20;;;16.30;88.50;;;;;;5083862;28;20040;-45
2021/06/11 01:55:27;;;;;;;9.68;7.03;;;16.30;88.30;;;;;;5083066;28;20074;-43
2021/06/11 01:57:54;;;;;;;9.52;7.10;;;16.30;88.20;;;;;;5082886;28;20028;-43
2021/06/11 02:00:20;;;;;;;9.35;6.55;;;16.30;88.10;;;;;;5083321;28;20347;-44
2021/06/11 02:02:45;;;;;;;10.68;7.22;;;16.30;88.50;;;;;;5084308;28;20028;-43
2021/06/11 02:05:12;;;;;;;9.90;6.78;;;16.30;87.90;;;;;;5082733;28;20049;-44
2021/06/11 02:07:37;;;;;;;8.10;6.53;;;16.30;88.20;;;;;;5082705;28;20099;-46
2021/06/11 02:10:04;;;;;;;9.25;6.38;;;16.30;88.00;;;;;;5082873;28;20028;-47
2021/06/11 02:12:29;;;;;;;8.25;6.88;;;16.30;88.10;;;;;;5082704;28;20258;-43
2021/06/11 02:14:55;;;;;;;10.02;6.80;;;16.30;88.10;;;;;;5083426;28;20077;-43
2021/06/11 02:17:22;;;;;;;7.88;6.38;;;16.30;87.80;;;;;;5083078;28;20037;-43
2021/06/11 02:19:47;;;;;;;10.23;6.93;;;16.20;87.50;;;;;;5082519;28;20036;-44
2021/06/11 02:22:12;;;;;;;8.30;6.72;;;16.20;87.60;;;;;;5084267;28;20021;-43
2021/06/11 02:24:39;;;;;;;9.85;6.80;;;16.30;88.10;;;;;;5082704;28;20139;-45
2021/06/11 02:27:05;;;;;;;7.00;6.10;;;16.30;88.20;;;;;;5084301;28;20036;-43
2021/06/11 02:29:31;;;;;;;10.10;6.30;;;16.10;87.40;;;;;;5082900;28;20043;-46
2021/06/11 02:31:57;;;;;;;12.98;7.03;;;16.00;87.20;;;;;;5082394;28;20037;-46
2021/06/11 02:34:22;;;;;;;8.20;6.60;;;16.00;87.60;;;;;;5083595;28;20068;-44
2021/06/11 02:36:48;;;;;;;7.68;6.35;;;16.10;87.80;;;;;;5083680;28;20090;-44
2021/06/11 02:39:13;;;;;;;9.40;6.70;;;16.10;87.90;;;;;;5082302;28;20063;-44
2021/06/11 02:41:41;;;;;;;8.65;6.75;;;16.00;87.80;;;;;;5083860;28;20032;-43
2021/06/11 02:44:08;;;;;;;10.65;6.72;;;16.10;87.90;;;;;;5082647;28;20041;-45
2021/06/11 02:46:38;;;;;;;8.75;6.68;;;16.00;87.60;;;;;;5082262;28;20340;-44
2021/06/11 02:49:25;;;;;;;9.15;6.70;;;16.00;87.60;;;;;;5083811;28;20035;-43
2021/06/11 02:51:52;;;;;;;11.48;7.07;;;16.20;88.00;;;;;;5065413;28;20223;-43
2021/06/11 02:54:26;;;;;;;7.65;6.35;;;16.20;88.20;;;;;;5083910;28;20040;-44
2021/06/11 02:57:01;;;;;;;9.80;6.63;;;16.10;87.60;;;;;;5082916;28;20037;-43
2021/06/11 02:59:32;;;;;;;8.77;6.70;;;16.20;88.40;;;;;;5083882;28;20093;-44
2021/06/11 03:02:03;;;;;;;10.52;6.75;;;16.10;87.30;;;;;;5082278;28;20048;-44
2021/06/11 03:04:29;;;;;;;8.85;6.55;;;16.10;87.20;;;;;;5082012;28;20049;-43
2021/06/11 03:06:55;;;;;;;9.10;6.75;;;16.00;87.20;;;;;;5081951;28;20090;-48
2021/06/11 03:09:22;;;;;;;11.70;6.45;;;16.00;88.00;;;;;;5065343;28;20032;-48
2021/06/11 03:11:50;;;;;;;9.93;6.53;;;15.90;87.80;;;;;;5083822;28;20048;-45
2021/06/11 03:14:16;;;;;;;11.07;6.00;;;15.90;87.10;;;;;;5085329;28;20139;-43
2021/06/11 03:16:43;;;;;;;10.05;6.43;;;16.00;87.90;;;;;;5085742;28;20259;-44
2021/06/11 03:19:10;;;;;;;12.35;6.95;;;15.90;86.70;;;;;;5086054;28;20100;-43
2021/06/11 03:21:37;;;;;;;10.85;5.72;;;15.90;86.90;;;;;;5087229;28;20060;-43
2021/06/11 03:24:06;;;;;;;7.15;5.55;;;15.80;86.90;;;;;;5086100;28;20037;-43
2021/06/11 03:26:56;;;;;;;9.38;6.18;;;15.80;86.70;;;;;;5087248;28;20025;-45
2021/06/11 03:29:44;;;;;;;7.28;6.03;;;16.00;87.20;;;;;;5086191;28;20074;-43
2021/06/11 03:32:19;;;;;;;8.18;5.88;;;16.00;86.70;;;;;;5085628;28;20098;-44
2021/06/11 03:34:44;;;;;;;9.80;6.03;;;16.00;87.10;;;;;;5086882;28;20387;-49
2021/06/11 03:37:11;;;;;;;10.13;6.18;;;15.90;86.50;;;;;;5086436;28;20051;-45
2021/06/11 03:39:58;;;;;;;6.75;5.50;;;15.90;87.10;;;;;;5085485;28;20078;-43
2021/06/11 03:42:24;;;;;;;9.95;6.43;;;16.00;87.40;;;;;;5085470;28;20032;-43
2021/06/11 03:44:50;;;;;;;8.23;6.45;;;16.10;87.10;;;;;;5086020;28;20039;-45
2021/06/11 03:47:19;;;;;;;10.80;6.55;;;16.00;87.00;;;;;;5086847;28;20036;-44
2021/06/11 03:49:45;;;;;;;7.68;5.90;;;16.10;87.60;;;;;;5068893;28;20223;-43
2021/06/11 03:52:14;;;;;;;8.90;5.70;;;16.10;87.20;;;;;;5085410;28;20028;-43
2021/06/11 03:54:42;;;;;;;8.23;5.70;;;16.00;86.70;;;;;;5086079;28;20066;-43
2021/06/11 03:57:08;;;;;;;10.50;6.22;;;15.80;86.70;;;;;;5086635;28;20087;-44
2021/06/11 03:59:33;;;;;;;8.55;6.50;;;15.90;87.10;;;;;;5085556;28;20037;-43
2021/06/11 04:01:59;;;;;;;22.85;6.13;;;15.90;87.60;;;;;;5086213;28;20035;-43
2021/06/11 04:04:24;;;;;;;7.57;6.03;;;16.10;87.90;;;;;;5086225;28;20099;-43
2021/06/11 04:06:52;;;;;;;6.53;5.50;;;16.00;87.40;;;;;;5086117;28;20041;-45
2021/06/11 04:09:20;;;;;;;9.85;5.75;;;16.00;87.60;;;;;;5086237;28;20032;-43
2021/06/11 04:11:53;;;;;;;15.00;5.68;;;16.00;87.10;;;;;;5068545;28;20033;-43
2021/06/11 04:14:24;;;;;;;12.05;5.90;;;16.00;87.40;;;;;;5084703;28;20104;-43
2021/06/11 04:16:50;;;;;;;6.45;5.28;;;16.00;87.10;;;;;;5084668;28;20071;-46
2021/06/11 04:19:41;;;;;;;7.85;5.78;;;16.00;87.40;;;;;;5085801;28;20025;-44
2021/06/11 04:22:07;;;;;;;8.98;5.47;;;16.10;87.10;;;;;;5085935;28;20094;-43
2021/06/11 04:24:33;;;;;;;8.20;5.18;;;16.10;87.10;;;;;;5084044;28;20254;-43
2021/06/11 04:26:59;;;;;;;7.38;5.32;;;16.10;88.00;;;;;;5085250;28;20027;-43
2021/06/11 04:29:27;;;;;;;6.00;5.00;;;16.10;86.70;;;;;;5084944;28;20327;-44
2021/06/11 04:31:53;;;;;;;8.88;6.03;;;16.20;87.20;;;;;;5084798;28;20036;-47
2021/06/11 04:34:19;;;;;;;7.43;5.40;;;16.00;86.30;;;;;;5085459;28;20044;-45
2021/06/11 04:36:45;;;;;;;8.18;5.50;;;16.20;87.50;;;;;;5085389;28;20029;-44
2021/06/11 04:39:12;;;;;;;9.57;6.30;;;16.30;87.80;;;;;;5086076;28;20034;-43
2021/06/11 04:41:38;;;;;;;7.47;5.65;;;16.30;88.00;;;;;;5085815;28;20033;-45
2021/06/11 04:44:04;;;;;;;9.23;6.28;;;16.50;87.70;;;;;;5085654;28;20381;-47
2021/06/11 04:46:30;;;;;;;7.60;5.45;;;16.40;88.10;;;;;;5085322;28;20037;-45
2021/06/11 04:48:55;;;;;;;8.65;5.72;;;16.60;88.10;;;;;;5085138;28;20024;-45
2021/06/11 04:51:21;;;;;;;9.23;6.05;;;16.60;87.90;;;;;;5084240;28;20033;-44
2021/06/11 04:53:47;;;;;;;11.32;5.70;;;16.70;88.20;;;;;;5086022;28;20228;-45
2021/06/11 04:56:12;;;;;;;8.15;6.18;;;16.70;87.90;;;;;;5084908;28;20037;-43
2021/06/11 04:58:39;;;;;;;9.93;6.28;;;16.70;87.80;;;;;;5084923;28;20037;-44
2021/06/11 05:01:06;;;;;;;11.10;6.10;;;16.80;87.90;;;;;;5085041;28;20099;-43
2021/06/11 05:03:32;;;;;;;9.38;6.22;;;16.80;87.80;;;;;;5084564;28;20219;-47
2021/06/11 05:05:57;;;;;;;9.30;5.50;;;16.80;87.50;;;;;;5085023;28;20044;-41
2021/06/11 05:08:23;;;;;;;8.48;5.90;;;16.80;87.10;;;;;;5083963;28;20253;-45
2021/06/11 05:10:48;;;;;;;9.70;5.70;;;16.80;87.40;;;;;;5084676;28;20362;-45
2021/06/11 05:13:14;;;;;;;9.18;5.80;;;16.70;86.70;;;;;;5084802;28;20082;-43
2021/06/11 05:15:39;;;;;;;8.05;6.15;;;16.80;86.80;;;;;;5084782;28;20032;-49
2021/06/11 05:18:06;;;;;;;10.23;6.68;;;16.80;86.80;;;;;;5085039;28;20053;-50
2021/06/11 05:20:32;;;;;;;15.75;6.10;;;16.70;87.30;;;;;;5084933;28;20097;-44
2021/06/11 05:22:57;;;;;;;9.18;6.05;;;16.70;87.00;;;;;;5084391;28;20212;-45
2021/06/11 05:25:23;;;;;;;12.63;6.53;;;16.70;87.60;;;;;;5084468;28;20051;-46
2021/06/11 05:27:49;;;;;;;7.75;5.90;;;16.80;87.80;;;;;;5084296;28;20094;-46
2021/06/11 05:30:16;;;;;;;8.02;5.90;;;16.80;87.20;;;;;;5084123;28;20037;-44
2021/06/11 05:32:41;;;;;;;8.55;6.43;;;16.90;87.50;;;;;;5084541;28;20033;-45
2021/06/11 05:35:07;;;;;;;7.57;5.85;;;17.00;87.70;;;;;;5083687;28;20040;-47
2021/06/11 05:37:33;;;;;;;7.88;5.85;;;16.90;86.40;;;;;;5084410;28;20355;-47
2021/06/11 05:39:58;;;;;;;9.98;6.68;;;16.90;86.60;;;;;;5083823;28;20092;-44
2021/06/11 05:42:24;;;;;;;11.52;6.45;;;17.00;87.60;;;;;;5082785;28;20250;-45
2021/06/11 05:44:49;;;;;;;11.35;7.65;;;17.00;87.10;;;;;;5084614;28;20032;-44
2021/06/11 05:47:15;;;;;;;9.57;7.30;;;17.00;87.00;;;;;;5084665;28;20041;-44
2021/06/11 05:49:40;;;;;;;9.52;6.43;;;17.10;87.10;;;;;;5084126;28;20066;-46
2021/06/11 05:52:06;;;;;;;8.50;6.15;;;17.10;87.10;;;;;;5084009;28;20075;-44
2021/06/11 05:54:31;;;;;;;8.65;6.80;;;17.10;86.60;;;;;;5083921;28;20392;-47
2021/06/11 05:56:57;;;;;;;7.97;6.35;;;17.20;87.40;;;;;;5084603;28;20029;-45
2021/06/11 05:59:23;;;;;;;7.68;6.28;;;17.20;86.40;;;;;;5084228;28;20115;-49
2021/06/11 06:01:48;;;;;;;9.05;6.22;;;17.20;86.30;;;;;;5083967;28;20036;-47
2021/06/11 06:04:14;;;;;;;8.27;6.25;;;17.30;86.60;;;;;;5084253;28;20082;-50
2021/06/11 06:06:39;;;;;;;9.40;6.47;;;17.30;86.40;;;;;;5084059;28;20029;-48
2021/06/11 06:09:05;;;;;;;10.43;6.50;;;17.30;86.60;;;;;;5084379;28;20369;-52
2021/06/11 06:11:30;;;;;;;10.23;6.25;;;17.30;86.80;;;;;;5084094;28;20032;-49
2021/06/11 06:13:56;;;;;;;9.18;6.57;;;17.40;86.80;;;;;;5083427;28;20052;-51
2021/06/11 06:16:21;;;;;;;9.40;6.60;;;17.50;87.20;;;;;;5082300;28;20039;-52
2021/06/11 06:18:47;;;;;;;12.00;6.60;;;17.40;86.10;;;;;;5083254;28;20088;-53
2021/06/11 06:21:12;;;;;;;10.25;6.78;;;17.60;87.10;;;;;;5084136;28;20323;-50
2021/06/11 06:23:38;;;;;;;10.38;6.60;;;17.80;87.30;;;;;;5083343;28;20040;-53
2021/06/11 06:26:04;;;;;;;9.65;7.28;;;17.80;87.00;;;;;;5083851;28;20316;-52
2021/06/11 06:28:30;;;;;;;9.85;7.07;;;17.80;85.40;;;;;;5083589;28;20029;-53
2021/06/11 06:30:55;;;;;;;9.52;6.57;;;17.90;86.00;;;;;;5083542;28;20331;-50
2021/06/11 06:33:21;;;;;;;10.40;7.53;;;18.00;86.10;;;;;;5082387;28;20029;-52
2021/06/11 06:35:46;;;;;;;8.65;6.82;;;18.10;85.60;;;;;;5084122;28;20027;-53
2021/06/11 06:38:13;;;;;;;11.00;7.75;;;18.10;84.80;;;;;;5083797;28;20100;-53
2021/06/11 06:40:40;;;;;;;13.60;7.53;;;18.00;83.60;;;;;;5083370;28;20087;-50
2021/06/11 06:43:05;;;;;;;10.10;7.38;;;18.10;83.00;;;;;;5083335;28;20024;-52
2021/06/11 06:45:31;;;;;;;10.10;7.22;;;18.10;82.90;;;;;;5083724;28;20036;-52
2021/06/11 06:47:56;;;;;;;9.68;7.68;;;18.10;83.10;;;;;;5086999;28;20063;-52
2021/06/11 06:50:22;;;;;;;10.25;6.95;;;18.20;81.50;;;;;;5087700;28;20048;-52
2021/06/11 06:52:53;;;;;;;11.05;6.53;;;18.30;81.10;;;;;;5086024;28;20074;-53
2021/06/11 06:55:18;;;;;;;8.95;6.95;;;18.30;81.90;;;;;;5087118;28;20036;-52
2021/06/11 06:57:44;;;;;;;11.45;6.78;;;18.30;79.50;;;;;;5087480;28;20044;-52
2021/06/11 07:00:10;;;;;;;10.02;7.10;;;18.50;81.80;;;;;;5087958;28;20043;-52
2021/06/11 07:02:36;;;;;;;8.25;6.43;;;18.50;81.30;;;;;;5087536;28;20033;-54
2021/06/11 07:05:01;;;;;;;10.50;7.30;;;18.40;77.40;;;;;;5086204;28;20119;-48
2021/06/11 07:07:27;;;;;;;11.93;7.15;;;18.50;78.70;;;;;;5087210;28;20077;-48
2021/06/11 07:09:52;;;;;;;9.70;6.82;;;18.70;81.30;;;;;;5087021;28;20083;-47
2021/06/11 07:12:18;;;;;;;8.15;6.70;;;18.80;81.20;;;;;;5085914;28;20078;-49
2021/06/11 07:14:43;;;;;;;9.27;6.38;;;18.70;80.80;;;;;;5087159;28;20268;-47
2021/06/11 07:17:09;;;;;;;10.60;6.40;;;18.80;78.70;;;;;;5087429;28;20036;-47
2021/06/11 07:19:34;;;;;;;7.65;5.95;;;18.80;80.30;;;;;;5087206;28;20096;-47
2021/06/11 07:22:00;;;;;;;8.55;6.35;;;18.90;80.30;;;;;;5086958;28;20212;-45
2021/06/11 07:24:25;;;;;;;12.55;6.53;;;19.00;80.60;;;;;;5086637;28;20350;-45
2021/06/11 07:26:51;;;;;;;10.32;5.63;;;19.10;80.50;;;;;;5087375;28;20033;-47
2021/06/11 07:29:17;;;;;;;9.07;5.95;;;18.90;78.60;;;;;;5087188;28;20032;-46
2021/06/11 07:31:42;;;;;;;9.73;6.72;;;19.10;79.40;;;;;;5086542;28;20084;-47
2021/06/11 07:34:08;;;;;;;7.95;5.90;;;19.20;79.50;;;;;;5086681;28;20088;-46
2021/06/11 07:36:33;;;;;;;7.72;6.10;;;19.20;79.40;;;;;;5086544;28;20052;-45
2021/06/11 07:38:59;;;;;;;7.13;5.63;;;19.30;78.90;;;;;;5087143;28;20054;-45
2021/06/11 07:41:24;;;;;;;7.40;6.07;;;19.30;78.70;;;;;;5086959;28;20044;-46
2021/06/11 07:43:50;;;;;;;9.07;5.38;;;19.50;78.70;;;;;;5086691;28;20040;-45
2021/06/11 07:46:17;;;;;;;8.02;5.63;;;19.50;76.80;;;;;;5086516;28;20040;-48
2021/06/11 07:48:43;;;;;;;11.35;6.80;;;19.70;78.20;;;;;;5086070;28;20309;-46
2021/06/11 07:51:08;;;;;;;8.30;5.57;;;19.80;76.40;;;;;;5087096;28;20039;-50
2021/06/11 07:53:34;;;;;;;13.75;5.93;;;19.80;75.90;;;;;;5086662;28;20071;-48
2021/06/11 07:55:59;;;;;;;9.70;6.40;;;19.90;76.50;;;;;;5086727;28;20033;-48
2021/06/11 07:58:25;;;;;;;10.43;6.10;;;20.00;78.20;;;;;;5084452;28;20048;-49
2021/06/11 08:00:50;;;;;;;7.72;5.80;;;20.10;75.60;;;;;;5068501;28;20059;-47
2021/06/11 08:03:16;;;;;;;7.47;5.88;;;20.20;75.90;;;;;;5085212;28;20085;-50
2021/06/11 08:05:42;;;;;;;10.50;6.60;;;20.30;74.80;;;;;;5086688;28;20029;-47
2021/06/11 08:08:07;;;;;;;11.38;6.47;;;20.40;75.00;;;;;;5068156;28;20043;-47
2021/06/11 08:10:33;;;;;;;9.57;6.00;;;20.50;73.80;;;;;;5086099;28;20092;-47
2021/06/11 08:12:59;;;;;;;7.63;5.40;;;20.60;73.70;;;;;;5085924;28;20039;-47
2021/06/11 08:15:24;;;;;;;9.40;5.55;;;20.70;75.20;;;;;;5085818;28;20064;-48
2021/06/11 08:17:50;;;;;;;9.93;5.75;;;20.80;67.40;;;;;;5086351;28;20028;-47
2021/06/11 08:20:16;;;;;;;7.97;5.28;;;20.80;71.70;;;;;;5086114;28;20037;-50
2021/06/11 08:22:41;;;;;;;7.40;5.15;;;21.00;68.00;;;;;;5084866;28;20100;-51
2021/06/11 08:25:08;;;;;;;6.78;5.47;;;21.20;68.90;;;;;;5085486;28;20339;-48
2021/06/11 08:27:34;;;;;;;7.50;4.45;;;21.30;70.40;;;;;;5086550;28;20267;-47
2021/06/11 08:29:59;;;;;;;6.18;4.50;;;21.40;70.50;;;;;;5086258;28;20024;-48
2021/06/11 08:32:25;;;;;;;8.05;4.57;;;21.40;69.00;;;;;;5085978;28;20036;-49
2021/06/11 08:34:50;;;;;;;7.45;5.07;;;21.60;69.90;;;;;;5085593;28;20340;-48
2021/06/11 08:37:16;;;;;;;8.77;4.93;;;21.50;66.90;;;;;;5085566;28;20333;-49
2021/06/11 08:39:42;;;;;;;7.03;5.20;;;21.40;68.10;;;;;;5085313;28;20021;-51
2021/06/11 08:42:07;;;;;;;6.63;5.38;;;21.50;69.40;;;;;;5085837;28;20216;-48
2021/06/11 08:44:33;;;;;;;6.90;5.03;;;21.40;67.00;;;;;;5085691;28;20033;-48
2021/06/11 08:46:59;;;;;;;6.25;4.30;;;21.40;66.70;;;;;;5085557;28;20059;-50
2021/06/11 08:49:24;;;;;;;9.10;5.13;;;21.50;67.20;;;;;;5085627;28;20040;-49
2021/06/11 08:51:51;;;;;;;8.02;5.30;;;21.80;67.40;;;;;;5084818;28;20024;-51
2021/06/11 08:54:17;;;;;;;7.15;4.85;;;22.00;67.10;;;;;;5085008;28;20039;-49
2021/06/11 08:56:43;;;;;;;9.48;5.03;;;22.00;66.30;;;;;;5086147;28;20280;-48
2021/06/11 08:59:08;;;;;;;11.68;4.88;;;22.20;65.70;;;;;;5084147;28;20340;-54
2021/06/11 09:01:34;;;;;;;6.00;4.60;;;22.50;64.10;;;;;;5085121;28;20033;-49
2021/06/11 09:03:59;;;;;;;6.13;4.50;;;22.70;64.20;;;;;;5084856;28;20081;-47
2021/06/11 09:06:25;;;;;;;7.07;4.53;;;22.50;63.40;;;;;;5085115;28;20418;-50
2021/06/11 09:08:52;;;;;;;8.27;5.22;;;22.30;65.00;;;;;;5086007;28;20028;-50
2021/06/11 09:11:19;;;;;;;5.68;4.22;;;22.20;66.00;;;;;;5085187;28;20324;-48
2021/06/11 09:14:06;;;;;;;8.05;4.85;;;22.00;66.50;;;;;;5083511;28;20075;-49
2021/06/11 09:16:55;;;;;;;8.23;4.93;;;21.90;66.30;;;;;;5085054;28;20033;-52
2021/06/11 09:19:22;;;;;;;6.75;4.65;;;21.80;61.10;;;;;;5084694;28;20041;-48
2021/06/11 09:21:49;;;;;;;6.60;4.78;;;22.00;60.40;;;;;;5084860;28;20029;-48
2021/06/11 09:24:17;;;;;;;6.85;4.93;;;22.30;65.20;;;;;;5084332;28;20032;-49
2021/06/11 09:27:08;;;;;;;5.60;4.07;;;22.50;63.50;;;;;;5085719;28;20204;-50
2021/06/11 09:29:43;;;;;;;4.68;3.80;;;22.70;60.40;;;;;;5084717;28;20035;-50
2021/06/11 09:32:12;;;;;;;4.90;3.88;;;22.90;62.50;;;;;;5084397;28;20088;-52
2021/06/11 09:34:38;;;;;;;8.45;3.67;;;22.80;60.60;;;;;;5084561;28;20040;-51
2021/06/11 09:37:08;;;;;;;7.22;4.30;;;22.80;63.80;;;;;;5084241;28;20343;-49
2021/06/11 09:39:50;;;;;;;7.05;4.00;;;22.60;60.50;;;;;;5084517;28;20056;-48
2021/06/11 09:42:21;;;;;;;5.45;3.83;;;22.80;60.80;;;;;;5084395;28;20094;-49
2021/06/11 09:44:51;;;;;;;10.30;4.28;;;23.20;61.60;;;;;;5084739;28;20305;-49
2021/06/11 09:47:38;;;;;;;6.97;4.33;;;23.30;57.70;;;;;;5084510;28;20035;-49
2021/06/11 09:50:11;;;;;;;5.53;4.57;;;23.40;58.40;;;;;;5083935;28;20040;-49
2021/06/11 09:52:55;;;;;;;8.15;5.00;;;23.50;55.50;;;;;;5084042;28;20043;-53
2021/06/11 09:55:32;;;;;;;11.80;4.75;;;23.70;60.60;;;;;;5084106;28;20047;-51
2021/06/11 09:58:05;;;;;;;9.40;4.70;;;23.80;56.10;;;;;;5084409;28;20093;-47
2021/06/11 10:00:38;;;;;;;6.63;4.40;;;23.50;55.40;;;;;;5082878;28;20035;-49
2021/06/11 10:03:10;;;;;;;7.80;4.25;;;23.60;54.20;;;;;;5084093;28;20024;-50
2021/06/11 10:05:35;;;;;;;8.75;4.50;;;23.80;56.20;;;;;;5084946;28;20224;-50
2021/06/11 10:08:01;;;;;;;7.68;4.47;;;23.70;51.60;;;;;;5083157;28;20059;-50
2021/06/11 10:10:27;;;;;;;4.90;4.18;;;23.80;52.90;;;;;;5084092;28;20039;-47
2021/06/11 10:12:52;;;;;;;6.57;4.57;;;24.10;55.50;;;;;;5083243;28;20336;-49
2021/06/11 10:15:18;;;;;;;7.93;5.00;;;24.10;55.20;;;;;;5084577;28;20074;-49
2021/06/11 10:17:43;;;;;;;6.32;4.63;;;24.30;53.00;;;;;;5084687;28;20092;-50
2021/06/11 10:20:13;;;;;;;5.60;3.72;;;24.40;55.10;;;;;;5083809;28;20207;-50
2021/06/11 10:22:38;;;;;;;6.20;4.25;;;24.30;53.50;;;;;;5082139;28;20043;-47
2021/06/11 10:25:12;;;;;;;5.60;4.20;;;24.30;57.30;;;;;;5083600;28;20041;-46
2021/06/11 10:27:41;;;;;;;8.48;4.63;;;23.90;60.50;;;;;;5083490;28;20320;-45
2021/06/11 10:30:07;;;;;;;5.88;4.75;;;23.60;60.90;;;;;;5082947;28;20271;-45
2021/06/11 10:32:38;;;;;;;7.47;4.57;;;23.50;62.60;;;;;;5082904;28;20059;-45
2021/06/11 10:35:04;;;;;;;;;;;23.40;60.40;;;;;;5084608;28;20332;-50
2021/06/11 10:37:34;;;;;;;6.03;5.05;;;23.20;59.00;;;;;;5083694;28;19963;-48
2021/06/11 10:40:38;;;;;;;7.87;5.07;;;23.10;61.40;;;;;;5083677;28;20025;-46
2021/06/11 10:43:24;;;;;;;13.90;6.32;;;23.00;61.20;;;;;;5065368;28;20257;-45
2021/06/11 10:45:51;;;;;;;6.60;4.80;;;22.90;60.00;;;;;;5083416;28;20092;-50
2021/06/11 10:48:17;;;;;;;7.50;5.40;;;22.70;61.30;;;;;;5083568;28;20027;-49
2021/06/11 10:50:42;;;;;;;6.30;5.07;;;22.70;61.60;;;;;;5084119;28;20021;-47
2021/06/11 10:53:27;;;;;;;8.27;5.40;;;22.60;60.00;;;;;;5083232;28;20039;-48
2021/06/11 10:56:13;;;;;;;5.82;4.63;;;23.00;62.00;;;;;;5082503;28;20071;-46
2021/06/11 10:58:39;;;;;;;4.88;4.38;;;23.60;58.20;;;;;;5083661;28;20032;-47
2021/06/11 11:01:24;;;;;;;5.93;4.57;;;23.80;61.40;;;;;;5083384;28;20308;-46
2021/06/11 11:03:50;;;;;;;5.25;4.70;;;23.90;60.60;;;;;;5083068;28;20029;-48
2021/06/11 11:06:42;;;;;;;5.60;4.18;;;24.00;58.80;;;;;;5083159;28;20346;-47
2021/06/11 11:09:08;;;;;;;6.45;4.30;;;24.20;56.00;;;;;;5081193;28;20100;-50
2021/06/11 11:11:35;;;;;;;6.85;4.32;;;24.30;57.80;;;;;;5083629;28;20032;-47
2021/06/11 11:14:01;;;;;;;8.30;4.40;;;24.70;58.30;;;;;;5082960;28;20060;-48
2021/06/11 11:16:28;;;;;;;9.27;5.45;;;24.60;55.90;;;;;;5083391;28;20324;-45
2021/06/11 11:18:53;;;;;;;5.13;4.05;;;24.30;58.70;;;;;;5083330;28;20055;-47
2021/06/11 11:21:22;;;;;;;5.75;4.25;;;24.10;56.80;;;;;;5083236;28;20028;-48
2021/06/11 11:23:52;;;;;;;7.72;5.00;;;24.00;58.50;;;;;;5083830;28;20384;-46
2021/06/11 11:26:54;;;;;;;8.57;4.50;;;23.80;58.60;;;;;;5083222;28;20111;-45
2021/06/11 11:29:20;;;;;;;7.32;5.20;;;23.80;58.40;;;;;;5083194;28;20085;-47
2021/06/11 11:31:48;;;;;;;10.50;5.20;;;23.70;59.90;;;;;;5082965;28;20201;-47
2021/06/11 11:34:14;;;;;;;8.27;4.90;;;23.60;61.00;;;;;;5083806;28;20219;-50
2021/06/11 11:36:39;;;;;;;6.85;5.20;;;23.50;59.80;;;;;;5086705;28;20065;-50
2021/06/11 11:39:07;;;;;;;7.18;4.90;;;23.60;61.60;;;;;;5087224;28;20070;-47
2021/06/11 11:41:33;;;;;;;6.53;4.40;;;23.60;59.60;;;;;;5086762;28;20131;-47
2021/06/11 11:43:59;;;;;;;7.10;4.13;;;23.90;57.40;;;;;;5086653;28;20036;-45
2021/06/11 11:46:24;;;;;;;7.78;4.80;;;24.20;57.50;;;;;;5086605;28;20040;-45
2021/06/11 11:48:50;;;;;;;6.78;5.03;;;24.20;56.60;;;;;;5086472;28;20074;-46
2021/06/11 11:51:17;;;;;;;7.13;4.88;;;24.00;58.60;;;;;;5086718;28;20036;-45
2021/06/11 11:53:42;;;;;;;6.07;4.43;;;23.90;58.30;;;;;;5085576;28;20083;-50
2021/06/11 11:56:08;;;;;;;6.70;4.60;;;23.80;58.60;;;;;;5087029;28;20212;-46
2021/06/11 11:58:33;;;;;;;8.55;5.38;;;23.70;58.50;;;;;;5086300;28;20040;-48
2021/06/11 12:00:59;;;;;;;8.60;4.80;;;23.80;61.40;;;;;;5086257;28;20101;-46
2021/06/11 12:03:24;;;;;;;10.05;5.57;;;23.70;61.40;;;;;;5086078;28;20062;-47
2021/06/11 12:05:50;;;;;;;7.57;5.50;;;23.80;60.30;;;;;;5086648;28;20035;-46
2021/06/11 12:08:15;;;;;;;6.47;5.07;;;24.20;58.70;;;;;;5086294;28;20036;-47
2021/06/11 12:10:41;;;;;;;6.78;4.70;;;24.40;57.30;;;;;;5086124;28;20052;-48
2021/06/11 12:13:07;;;;;;;6.13;4.53;;;24.30;55.60;;;;;;5085754;28;20381;-47
2021/06/11 12:15:32;;;;;;;7.13;4.30;;;24.20;56.60;;;;;;5085787;28;20032;-48
2021/06/11 12:17:58;;;;;;;5.97;4.63;;;24.00;56.00;;;;;;5085307;28;20327;-49
2021/06/11 12:20:24;;;;;;;5.15;4.22;;;23.90;55.60;;;;;;5086204;28;20028;-48
2021/06/11 12:22:49;;;;;;;6.40;4.60;;;23.80;54.10;;;;;;5084839;28;20040;-47
2021/06/11 12:25:15;;;;;;;5.45;4.32;;;24.20;56.00;;;;;;5084664;28;20044;-47
2021/06/11 12:27:40;;;;;;;7.57;4.53;;;24.40;54.20;;;;;;5084472;28;20060;-50
2021/06/11 12:30:07;;;;;;;6.18;4.13;;;24.80;55.90;;;;;;5085827;28;20087;-46
2021/06/11 12:32:32;;;;;;;5.85;4.55;;;24.90;52.90;;;;;;5086267;28;20328;-50
2021/06/11 12:34:58;;;;;;;5.75;4.75;;;24.90;50.30;;;;;;5086375;28;20092;-47
2021/06/11 12:37:23;;;;;;;6.38;4.38;;;25.10;54.40;;;;;;5084509;28;20036;-47
2021/06/11 12:39:51;;;;;;;5.70;4.20;;;25.30;52.00;;;;;;5085337;28;20087;-47
2021/06/11 12:42:19;;;;;;;4.20;3.72;;;25.10;51.20;;;;;;5083932;28;20020;-47
2021/06/11 12:44:46;;;;;;;4.15;3.50;;;25.30;47.20;;;;;;5085594;28;20024;-50
2021/06/11 12:47:12;;;;;;;5.07;4.10;;;25.30;52.00;;;;;;5085575;28;20033;-47